sensor_id;sensor_type;location;lat;lon;timestamp;P1;durP1;ratioP1;P2;durP2;ratioP2
10661;SDS011;5379;51.034;7.006;2024-03-02T00:00:18;0.43;;;0.43;;
10661;SDS011;5379;51.034;7.006;2024-03-02T00:02:47;1.10;;;1.00;;
10661;SDS011;5379;51.034;7.006;2024-03-02T00:05:15;0.80;;;0.80;;
10661;SDS011;5379;51.034;7.006;2024-03-02T00:07:45;0.73;;;0.73;;
10661;SDS011;5379;51.034;7.006;2024-03-02T00:10:14;1.37;;;0.83;;
10661;SDS011;5379;51.034;7.006;2024-03-02T00:12:46;0.63;;;0.63;;
10661;SDS011;5379;51.034;7.006;2024-03-02T00:15:22;0.90;;;0.90;;
10661;SDS011;5379;51.034;7.006;2024-03-02T00:18:02;0.70;;;0.70;;
10661;SDS011;5379;51.034;7.006;2024-03-02T00:20:30;0.90;;;0.90;;
10661;SDS011;5379;51.034;7.006;2024-03-02T00:23:00;0.80;;;0.80;;
10661;SDS011;5379;51.034;7.006;2024-03-02T00:25:38;0.90;;;0.90;;
10661;SDS011;5379;51.034;7.006;2024-03-02T00:28:10;0.60;;;0.60;;
10661;SDS011;5379;51.034;7.006;2024-03-02T00:30:49;0.70;;;0.70;;
10661;SDS011;5379;51.034;7.006;2024-03-02T00:33:26;0.93;;;0.93;;
10661;SDS011;5379;51.034;7.006;2024-03-02T00:35:56;0.63;;;0.63;;
10661;SDS011;5379;51.034;7.006;2024-03-02T00:38:26;0.70;;;0.70;;
10661;SDS011;5379;51.034;7.006;2024-03-02T00:40:53;0.63;;;0.63;;
10661;SDS011;5379;51.034;7.006;2024-03-02T00:46:27;0.77;;;0.77;;
10661;SDS011;5379;51.034;7.006;2024-03-02T00:48:56;0.73;;;0.73;;
10661;SDS011;5379;51.034;7.006;2024-03-02T00:51:24;0.50;;;0.50;;
10661;SDS011;5379;51.034;7.006;2024-03-02T00:53:53;0.70;;;0.70;;
10661;SDS011;5379;51.034;7.006;2024-03-02T00:56:22;0.57;;;0.57;;
10661;SDS011;5379;51.034;7.006;2024-03-02T00:58:49;1.10;;;1.10;;
10661;SDS011;5379;51.034;7.006;2024-03-02T05:31:04;1.23;;;1.13;;
10661;SDS011;5379;51.034;7.006;2024-03-02T05:33:31;0.93;;;0.93;;
10661;SDS011;5379;51.034;7.006;2024-03-02T05:35:58;0.80;;;0.80;;
10661;SDS011;5379;51.034;7.006;2024-03-02T05:38:26;1.67;;;1.37;;
10661;SDS011;5379;51.034;7.006;2024-03-02T05:40:53;0.80;;;0.80;;
10661;SDS011;5379;51.034;7.006;2024-03-02T05:43:20;3.20;;;0.70;;
10661;SDS011;5379;51.034;7.006;2024-03-02T05:45:47;0.70;;;0.70;;
10661;SDS011;5379;51.034;7.006;2024-03-02T05:48:15;0.83;;;0.83;;
10661;SDS011;5379;51.034;7.006;2024-03-02T05:50:42;1.23;;;1.13;;
10661;SDS011;5379;51.034;7.006;2024-03-02T05:53:09;2.53;;;0.80;;
10661;SDS011;5379;51.034;7.006;2024-03-02T05:55:35;1.27;;;1.13;;
10661;SDS011;5379;51.034;7.006;2024-03-02T05:58:02;1.17;;;1.13;;
10661;SDS011;5379;51.034;7.006;2024-03-02T06:00:45;0.83;;;0.83;;
10661;SDS011;5379;51.034;7.006;2024-03-02T06:03:12;0.90;;;0.90;;
10661;SDS011;5379;51.034;7.006;2024-03-02T06:05:40;1.37;;;1.30;;
10661;SDS011;5379;51.034;7.006;2024-03-02T06:08:07;1.80;;;1.40;;
10661;SDS011;5379;51.034;7.006;2024-03-02T06:10:33;0.90;;;0.90;;
10661;SDS011;5379;51.034;7.006;2024-03-02T06:13:00;0.90;;;0.90;;
10661;SDS011;5379;51.034;7.006;2024-03-02T06:15:27;1.00;;;1.00;;
10661;SDS011;5379;51.034;7.006;2024-03-02T06:17:53;1.40;;;1.30;;
10661;SDS011;5379;51.034;7.006;2024-03-02T06:20:20;4.27;;;1.70;;
10661;SDS011;5379;51.034;7.006;2024-03-02T06:22:48;1.33;;;1.23;;
10661;SDS011;5379;51.034;7.006;2024-03-02T06:25:15;1.00;;;1.00;;
10661;SDS011;5379;51.034;7.006;2024-03-02T06:27:42;1.23;;;1.23;;
10661;SDS011;5379;51.034;7.006;2024-03-02T06:30:09;1.10;;;1.10;;
10661;SDS011;5379;51.034;7.006;2024-03-02T06:32:36;1.07;;;1.07;;
10661;SDS011;5379;51.034;7.006;2024-03-02T06:35:04;1.30;;;1.30;;
10661;SDS011;5379;51.034;7.006;2024-03-02T06:37:33;1.30;;;1.30;;
10661;SDS011;5379;51.034;7.006;2024-03-02T06:40:01;1.37;;;1.37;;
10661;SDS011;5379;51.034;7.006;2024-03-02T06:42:28;1.30;;;1.30;;
10661;SDS011;5379;51.034;7.006;2024-03-02T06:44:58;2.97;;;1.47;;
10661;SDS011;5379;51.034;7.006;2024-03-02T06:47:25;1.17;;;1.13;;
10661;SDS011;5379;51.034;7.006;2024-03-02T06:49:51;1.33;;;1.23;;
10661;SDS011;5379;51.034;7.006;2024-03-02T06:52:18;1.40;;;1.40;;
10661;SDS011;5379;51.034;7.006;2024-03-02T06:54:45;1.27;;;1.27;;
10661;SDS011;5379;51.034;7.006;2024-03-02T06:57:14;1.60;;;1.50;;
10661;SDS011;5379;51.034;7.006;2024-03-02T06:59:42;1.90;;;1.80;;
10661;SDS011;5379;51.034;7.006;2024-03-02T07:02:08;3.30;;;1.70;;
10661;SDS011;5379;51.034;7.006;2024-03-02T07:04:35;1.33;;;1.23;;
10661;SDS011;5379;51.034;7.006;2024-03-02T07:07:02;1.33;;;1.33;;
10661;SDS011;5379;51.034;7.006;2024-03-02T07:09:29;2.47;;;1.43;;
10661;SDS011;5379;51.034;7.006;2024-03-02T07:11:56;1.17;;;1.07;;
10661;SDS011;5379;51.034;7.006;2024-03-02T07:14:24;0.87;;;0.87;;
10661;SDS011;5379;51.034;7.006;2024-03-02T07:17:11;1.23;;;1.17;;
10661;SDS011;5379;51.034;7.006;2024-03-02T07:19:38;1.10;;;1.10;;
10661;SDS011;5379;51.034;7.006;2024-03-02T07:22:06;1.80;;;1.30;;
10661;SDS011;5379;51.034;7.006;2024-03-02T07:24:38;1.27;;;1.17;;
10661;SDS011;5379;51.034;7.006;2024-03-02T07:27:07;2.27;;;1.80;;
10661;SDS011;5379;51.034;7.006;2024-03-02T07:29:35;1.00;;;1.00;;
10661;SDS011;5379;51.034;7.006;2024-03-02T07:32:02;1.97;;;1.50;;
10661;SDS011;5379;51.034;7.006;2024-03-02T07:34:29;1.20;;;1.20;;
10661;SDS011;5379;51.034;7.006;2024-03-02T07:36:56;1.60;;;1.50;;
10661;SDS011;5379;51.034;7.006;2024-03-02T07:39:24;1.43;;;1.37;;
10661;SDS011;5379;51.034;7.006;2024-03-02T07:41:51;1.43;;;1.33;;
10661;SDS011;5379;51.034;7.006;2024-03-02T07:44:18;1.13;;;1.13;;
10661;SDS011;5379;51.034;7.006;2024-03-02T07:46:46;3.07;;;1.57;;
10661;SDS011;5379;51.034;7.006;2024-03-02T07:49:14;2.77;;;1.53;;
10661;SDS011;5379;51.034;7.006;2024-03-02T07:51:41;1.57;;;1.47;;
10661;SDS011;5379;51.034;7.006;2024-03-02T07:54:08;1.73;;;1.23;;
10661;SDS011;5379;51.034;7.006;2024-03-02T07:56:35;1.10;;;1.10;;
10661;SDS011;5379;51.034;7.006;2024-03-02T07:59:02;1.10;;;1.10;;
10661;SDS011;5379;51.034;7.006;2024-03-02T08:01:29;1.13;;;1.13;;
10661;SDS011;5379;51.034;7.006;2024-03-02T08:03:58;1.27;;;1.17;;
10661;SDS011;5379;51.034;7.006;2024-03-02T08:06:25;1.90;;;1.70;;
10661;SDS011;5379;51.034;7.006;2024-03-02T08:08:53;1.10;;;1.10;;
10661;SDS011;5379;51.034;7.006;2024-03-02T08:11:20;0.87;;;0.87;;
10661;SDS011;5379;51.034;7.006;2024-03-02T08:13:47;5.07;;;1.20;;
10661;SDS011;5379;51.034;7.006;2024-03-02T08:16:14;1.60;;;1.50;;
10661;SDS011;5379;51.034;7.006;2024-03-02T08:18:43;0.90;;;0.90;;
10661;SDS011;5379;51.034;7.006;2024-03-02T08:21:12;1.67;;;1.40;;
10661;SDS011;5379;51.034;7.006;2024-03-02T08:23:38;0.97;;;0.97;;
10661;SDS011;5379;51.034;7.006;2024-03-02T08:26:07;1.20;;;1.20;;
10661;SDS011;5379;51.034;7.006;2024-03-02T08:28:34;2.53;;;1.30;;
10661;SDS011;5379;51.034;7.006;2024-03-02T08:31:02;1.70;;;1.47;;
10661;SDS011;5379;51.034;7.006;2024-03-02T08:33:29;5.90;;;1.47;;
10661;SDS011;5379;51.034;7.006;2024-03-02T08:35:55;1.30;;;1.30;;
10661;SDS011;5379;51.034;7.006;2024-03-02T08:38:24;1.10;;;1.00;;
10661;SDS011;5379;51.034;7.006;2024-03-02T08:40:51;3.33;;;1.33;;
10661;SDS011;5379;51.034;7.006;2024-03-02T08:43:18;2.93;;;1.03;;
10661;SDS011;5379;51.034;7.006;2024-03-02T08:45:44;1.53;;;1.23;;
10661;SDS011;5379;51.034;7.006;2024-03-02T08:48:12;1.17;;;1.07;;
10661;SDS011;5379;51.034;7.006;2024-03-02T08:50:39;3.27;;;1.40;;
10661;SDS011;5379;51.034;7.006;2024-03-02T08:53:05;1.03;;;0.97;;
10661;SDS011;5379;51.034;7.006;2024-03-02T08:55:34;1.10;;;1.10;;
10661;SDS011;5379;51.034;7.006;2024-03-02T08:58:00;1.30;;;1.20;;
10661;SDS011;5379;51.034;7.006;2024-03-02T09:00:27;0.63;;;0.63;;
10661;SDS011;5379;51.034;7.006;2024-03-02T09:02:54;0.80;;;0.80;;
10661;SDS011;5379;51.034;7.006;2024-03-02T09:05:21;0.73;;;0.73;;
10661;SDS011;5379;51.034;7.006;2024-03-02T09:07:47;0.87;;;0.87;;
10661;SDS011;5379;51.034;7.006;2024-03-02T09:10:14;0.97;;;0.97;;
10661;SDS011;5379;51.034;7.006;2024-03-02T09:12:42;1.00;;;1.00;;
10661;SDS011;5379;51.034;7.006;2024-03-02T09:15:09;1.10;;;1.00;;
10661;SDS011;5379;51.034;7.006;2024-03-02T09:17:36;1.07;;;1.07;;
10661;SDS011;5379;51.034;7.006;2024-03-02T09:20:03;1.17;;;1.07;;
10661;SDS011;5379;51.034;7.006;2024-03-02T09:22:30;1.07;;;1.07;;
10661;SDS011;5379;51.034;7.006;2024-03-02T09:24:57;0.60;;;0.60;;
10661;SDS011;5379;51.034;7.006;2024-03-02T09:27:24;1.20;;;1.10;;
10661;SDS011;5379;51.034;7.006;2024-03-02T09:29:52;0.87;;;0.87;;
10661;SDS011;5379;51.034;7.006;2024-03-02T09:32:19;1.00;;;1.00;;
10661;SDS011;5379;51.034;7.006;2024-03-02T09:34:46;1.67;;;0.83;;
10661;SDS011;5379;51.034;7.006;2024-03-02T09:37:13;1.20;;;0.93;;
10661;SDS011;5379;51.034;7.006;2024-03-02T09:39:40;0.63;;;0.63;;
10661;SDS011;5379;51.034;7.006;2024-03-02T09:42:10;0.40;;;0.40;;
10661;SDS011;5379;51.034;7.006;2024-03-02T09:44:37;0.60;;;0.60;;
10661;SDS011;5379;51.034;7.006;2024-03-02T09:47:06;0.50;;;0.50;;
10661;SDS011;5379;51.034;7.006;2024-03-02T09:49:33;0.40;;;0.40;;
10661;SDS011;5379;51.034;7.006;2024-03-02T09:52:00;1.37;;;0.50;;
10661;SDS011;5379;51.034;7.006;2024-03-02T09:54:29;5.90;;;0.93;;
10661;SDS011;5379;51.034;7.006;2024-03-02T09:56:55;0.97;;;0.80;;
10661;SDS011;5379;51.034;7.006;2024-03-02T09:59:22;0.43;;;0.43;;
10661;SDS011;5379;51.034;7.006;2024-03-02T10:01:55;0.50;;;0.50;;
10661;SDS011;5379;51.034;7.006;2024-03-02T10:04:25;1.13;;;0.70;;
10661;SDS011;5379;51.034;7.006;2024-03-02T10:07:04;0.50;;;0.50;;
10661;SDS011;5379;51.034;7.006;2024-03-02T10:09:37;0.80;;;0.50;;
10661;SDS011;5379;51.034;7.006;2024-03-02T10:12:04;0.50;;;0.50;;
10661;SDS011;5379;51.034;7.006;2024-03-02T10:14:31;0.83;;;0.83;;
10661;SDS011;5379;51.034;7.006;2024-03-02T10:17:01;1.10;;;0.70;;
10661;SDS011;5379;51.034;7.006;2024-03-02T10:19:31;0.60;;;0.60;;
10661;SDS011;5379;51.034;7.006;2024-03-02T10:21:59;0.33;;;0.33;;
10661;SDS011;5379;51.034;7.006;2024-03-02T10:24:27;1.17;;;0.83;;
10661;SDS011;5379;51.034;7.006;2024-03-02T10:27:01;2.60;;;1.00;;
10661;SDS011;5379;51.034;7.006;2024-03-02T10:29:29;0.47;;;0.47;;
10661;SDS011;5379;51.034;7.006;2024-03-02T10:31:56;0.43;;;0.43;;
10661;SDS011;5379;51.034;7.006;2024-03-02T10:34:24;1.40;;;0.90;;
10661;SDS011;5379;51.034;7.006;2024-03-02T10:36:52;0.60;;;0.60;;
10661;SDS011;5379;51.034;7.006;2024-03-02T10:39:20;0.70;;;0.70;;
10661;SDS011;5379;51.034;7.006;2024-03-02T10:41:47;0.43;;;0.43;;
10661;SDS011;5379;51.034;7.006;2024-03-02T10:44:18;0.47;;;0.47;;
10661;SDS011;5379;51.034;7.006;2024-03-02T10:46:45;0.70;;;0.70;;
10661;SDS011;5379;51.034;7.006;2024-03-02T10:49:13;0.97;;;0.70;;
10661;SDS011;5379;51.034;7.006;2024-03-02T10:51:40;0.87;;;0.57;;
10661;SDS011;5379;51.034;7.006;2024-03-02T10:54:08;2.10;;;0.93;;
10661;SDS011;5379;51.034;7.006;2024-03-02T10:56:38;0.60;;;0.60;;
10661;SDS011;5379;51.034;7.006;2024-03-02T10:59:06;0.63;;;0.63;;
10661;SDS011;5379;51.034;7.006;2024-03-02T11:01:43;0.47;;;0.47;;
10661;SDS011;5379;51.034;7.006;2024-03-02T11:04:12;0.93;;;0.27;;
10661;SDS011;5379;51.034;7.006;2024-03-02T11:06:41;0.47;;;0.47;;
10661;SDS011;5379;51.034;7.006;2024-03-02T11:09:16;0.30;;;0.30;;
10661;SDS011;5379;51.034;7.006;2024-03-02T11:11:45;0.70;;;0.70;;
10661;SDS011;5379;51.034;7.006;2024-03-02T11:14:21;0.50;;;0.50;;
10661;SDS011;5379;51.034;7.006;2024-03-02T11:16:51;1.43;;;0.73;;
10661;SDS011;5379;51.034;7.006;2024-03-02T11:19:19;0.60;;;0.60;;
10661;SDS011;5379;51.034;7.006;2024-03-02T11:21:46;0.30;;;0.30;;
10661;SDS011;5379;51.034;7.006;2024-03-02T11:27:06;0.50;;;0.50;;
10661;SDS011;5379;51.034;7.006;2024-03-02T11:29:42;0.40;;;0.40;;
10661;SDS011;5379;51.034;7.006;2024-03-02T11:32:13;2.10;;;0.90;;
10661;SDS011;5379;51.034;7.006;2024-03-02T11:34:42;0.57;;;0.57;;
10661;SDS011;5379;51.034;7.006;2024-03-02T11:37:12;0.83;;;0.70;;
10661;SDS011;5379;51.034;7.006;2024-03-02T11:39:39;0.73;;;0.50;;
10661;SDS011;5379;51.034;7.006;2024-03-02T11:42:08;0.30;;;0.30;;
10661;SDS011;5379;51.034;7.006;2024-03-02T11:44:35;0.73;;;0.73;;
10661;SDS011;5379;51.034;7.006;2024-03-02T11:47:05;0.60;;;0.60;;
10661;SDS011;5379;51.034;7.006;2024-03-02T11:49:36;0.60;;;0.60;;
10661;SDS011;5379;51.034;7.006;2024-03-02T11:52:04;1.00;;;0.80;;
10661;SDS011;5379;51.034;7.006;2024-03-02T11:54:34;0.67;;;0.67;;
10661;SDS011;5379;51.034;7.006;2024-03-02T11:57:04;0.50;;;0.50;;
10661;SDS011;5379;51.034;7.006;2024-03-02T11:59:33;0.93;;;0.90;;
10661;SDS011;5379;51.034;7.006;2024-03-02T12:02:00;1.13;;;0.70;;
10661;SDS011;5379;51.034;7.006;2024-03-02T12:04:27;1.17;;;0.97;;
10661;SDS011;5379;51.034;7.006;2024-03-02T12:06:56;0.67;;;0.67;;
10661;SDS011;5379;51.034;7.006;2024-03-02T12:09:24;0.50;;;0.50;;
10661;SDS011;5379;51.034;7.006;2024-03-02T12:12:01;0.83;;;0.83;;
10661;SDS011;5379;51.034;7.006;2024-03-02T12:14:29;2.53;;;1.17;;
10661;SDS011;5379;51.034;7.006;2024-03-02T12:16:57;1.70;;;0.70;;
10661;SDS011;5379;51.034;7.006;2024-03-02T12:19:24;0.50;;;0.50;;
10661;SDS011;5379;51.034;7.006;2024-03-02T12:21:51;0.33;;;0.33;;
10661;SDS011;5379;51.034;7.006;2024-03-02T12:24:19;0.60;;;0.60;;
10661;SDS011;5379;51.034;7.006;2024-03-02T12:26:47;0.40;;;0.40;;
10661;SDS011;5379;51.034;7.006;2024-03-02T12:29:15;0.77;;;0.40;;
10661;SDS011;5379;51.034;7.006;2024-03-02T12:31:41;0.50;;;0.50;;
10661;SDS011;5379;51.034;7.006;2024-03-02T12:34:11;0.47;;;0.47;;
10661;SDS011;5379;51.034;7.006;2024-03-02T12:36:40;0.37;;;0.37;;
10661;SDS011;5379;51.034;7.006;2024-03-02T12:39:07;0.30;;;0.30;;
10661;SDS011;5379;51.034;7.006;2024-03-02T12:41:35;0.73;;;0.63;;
10661;SDS011;5379;51.034;7.006;2024-03-02T12:44:02;0.30;;;0.30;;
10661;SDS011;5379;51.034;7.006;2024-03-02T12:46:29;0.30;;;0.30;;
10661;SDS011;5379;51.034;7.006;2024-03-02T12:48:56;1.13;;;0.90;;
10661;SDS011;5379;51.034;7.006;2024-03-02T12:51:25;0.80;;;0.80;;
10661;SDS011;5379;51.034;7.006;2024-03-02T12:53:55;0.93;;;0.93;;
10661;SDS011;5379;51.034;7.006;2024-03-02T12:56:22;0.83;;;0.60;;
10661;SDS011;5379;51.034;7.006;2024-03-02T12:58:52;0.43;;;0.43;;
10661;SDS011;5379;51.034;7.006;2024-03-02T13:01:20;0.60;;;0.60;;
10661;SDS011;5379;51.034;7.006;2024-03-02T13:03:48;0.50;;;0.50;;
10661;SDS011;5379;51.034;7.006;2024-03-02T13:06:16;0.23;;;0.23;;
10661;SDS011;5379;51.034;7.006;2024-03-02T13:08:44;0.63;;;0.63;;
10661;SDS011;5379;51.034;7.006;2024-03-02T13:11:11;0.43;;;0.43;;
10661;SDS011;5379;51.034;7.006;2024-03-02T13:13:38;1.80;;;0.63;;
10661;SDS011;5379;51.034;7.006;2024-03-02T13:16:07;0.40;;;0.40;;
10661;SDS011;5379;51.034;7.006;2024-03-02T13:18:35;0.33;;;0.33;;
10661;SDS011;5379;51.034;7.006;2024-03-02T13:21:02;0.57;;;0.43;;
10661;SDS011;5379;51.034;7.006;2024-03-02T13:23:29;0.57;;;0.57;;
10661;SDS011;5379;51.034;7.006;2024-03-02T13:25:58;0.70;;;0.70;;
10661;SDS011;5379;51.034;7.006;2024-03-02T13:28:25;1.63;;;0.70;;
10661;SDS011;5379;51.034;7.006;2024-03-02T13:30:52;0.30;;;0.30;;
10661;SDS011;5379;51.034;7.006;2024-03-02T13:33:18;0.30;;;0.30;;
10661;SDS011;5379;51.034;7.006;2024-03-02T13:35:47;0.77;;;0.60;;
10661;SDS011;5379;51.034;7.006;2024-03-02T13:38:15;1.00;;;0.97;;
10661;SDS011;5379;51.034;7.006;2024-03-02T13:40:41;0.30;;;0.23;;
10661;SDS011;5379;51.034;7.006;2024-03-02T13:43:10;0.87;;;0.53;;
10661;SDS011;5379;51.034;7.006;2024-03-02T13:45:37;1.90;;;0.60;;
10661;SDS011;5379;51.034;7.006;2024-03-02T13:48:04;0.37;;;0.37;;
10661;SDS011;5379;51.034;7.006;2024-03-02T13:50:31;0.50;;;0.50;;
10661;SDS011;5379;51.034;7.006;2024-03-02T13:52:58;0.40;;;0.40;;
10661;SDS011;5379;51.034;7.006;2024-03-02T13:55:25;1.90;;;0.63;;
10661;SDS011;5379;51.034;7.006;2024-03-02T13:57:51;0.60;;;0.60;;
10661;SDS011;5379;51.034;7.006;2024-03-02T14:00:20;0.20;;;0.20;;
10661;SDS011;5379;51.034;7.006;2024-03-02T14:02:47;0.07;;;0.07;;
10661;SDS011;5379;51.034;7.006;2024-03-02T14:05:15;0.63;;;0.63;;
10661;SDS011;5379;51.034;7.006;2024-03-02T14:07:42;0.43;;;0.43;;
10661;SDS011;5379;51.034;7.006;2024-03-02T14:10:09;0.70;;;0.70;;
10661;SDS011;5379;51.034;7.006;2024-03-02T14:12:36;0.50;;;0.50;;
10661;SDS011;5379;51.034;7.006;2024-03-02T14:15:03;0.40;;;0.40;;
10661;SDS011;5379;51.034;7.006;2024-03-02T14:17:32;0.60;;;0.60;;
10661;SDS011;5379;51.034;7.006;2024-03-02T14:19:59;0.70;;;0.70;;
10661;SDS011;5379;51.034;7.006;2024-03-02T14:22:25;2.83;;;0.40;;
10661;SDS011;5379;51.034;7.006;2024-03-02T14:24:52;2.30;;;0.70;;
10661;SDS011;5379;51.034;7.006;2024-03-02T14:27:19;0.53;;;0.53;;
10661;SDS011;5379;51.034;7.006;2024-03-02T14:29:46;0.40;;;0.40;;
10661;SDS011;5379;51.034;7.006;2024-03-02T14:32:13;0.30;;;0.30;;
10661;SDS011;5379;51.034;7.006;2024-03-02T14:34:41;0.37;;;0.37;;
10661;SDS011;5379;51.034;7.006;2024-03-02T14:37:07;0.47;;;0.47;;
10661;SDS011;5379;51.034;7.006;2024-03-02T14:39:34;0.93;;;0.93;;
10661;SDS011;5379;51.034;7.006;2024-03-02T14:42:01;0.87;;;0.87;;
10661;SDS011;5379;51.034;7.006;2024-03-02T14:44:28;0.67;;;0.43;;
10661;SDS011;5379;51.034;7.006;2024-03-02T14:46:55;0.67;;;0.67;;
10661;SDS011;5379;51.034;7.006;2024-03-02T14:49:23;0.40;;;0.40;;
10661;SDS011;5379;51.034;7.006;2024-03-02T14:51:51;1.50;;;0.83;;
10661;SDS011;5379;51.034;7.006;2024-03-02T14:54:18;0.40;;;0.40;;
10661;SDS011;5379;51.034;7.006;2024-03-02T14:56:45;0.60;;;0.60;;
10661;SDS011;5379;51.034;7.006;2024-03-02T14:59:12;0.43;;;0.43;;
10661;SDS011;5379;51.034;7.006;2024-03-02T15:01:38;0.73;;;0.73;;
10661;SDS011;5379;51.034;7.006;2024-03-02T15:04:05;1.33;;;0.63;;
10661;SDS011;5379;51.034;7.006;2024-03-02T15:06:32;0.43;;;0.43;;
10661;SDS011;5379;51.034;7.006;2024-03-02T15:09:00;2.50;;;0.50;;
10661;SDS011;5379;51.034;7.006;2024-03-02T15:11:27;0.40;;;0.40;;
10661;SDS011;5379;51.034;7.006;2024-03-02T15:13:55;0.57;;;0.57;;
10661;SDS011;5379;51.034;7.006;2024-03-02T15:16:22;0.50;;;0.50;;
10661;SDS011;5379;51.034;7.006;2024-03-02T15:18:49;0.67;;;0.63;;
10661;SDS011;5379;51.034;7.006;2024-03-02T15:21:16;0.50;;;0.50;;
10661;SDS011;5379;51.034;7.006;2024-03-02T15:23:44;0.53;;;0.53;;
10661;SDS011;5379;51.034;7.006;2024-03-02T15:26:12;0.30;;;0.30;;
10661;SDS011;5379;51.034;7.006;2024-03-02T15:28:39;0.53;;;0.53;;
10661;SDS011;5379;51.034;7.006;2024-03-02T15:31:05;2.03;;;0.83;;
10661;SDS011;5379;51.034;7.006;2024-03-02T15:33:32;0.50;;;0.40;;
10661;SDS011;5379;51.034;7.006;2024-03-02T15:35:59;0.53;;;0.50;;
10661;SDS011;5379;51.034;7.006;2024-03-02T15:38:27;1.53;;;0.53;;
10661;SDS011;5379;51.034;7.006;2024-03-02T15:40:53;0.60;;;0.60;;
10661;SDS011;5379;51.034;7.006;2024-03-02T15:43:22;0.20;;;0.20;;
10661;SDS011;5379;51.034;7.006;2024-03-02T15:49:45;0.50;;;0.50;;
10661;SDS011;5379;51.034;7.006;2024-03-02T15:52:13;0.40;;;0.40;;
10661;SDS011;5379;51.034;7.006;2024-03-02T16:04:52;0.30;;;0.30;;
10661;SDS011;5379;51.034;7.006;2024-03-02T16:07:37;0.40;;;0.40;;
10661;SDS011;5379;51.034;7.006;2024-03-02T16:10:07;0.87;;;0.70;;
10661;SDS011;5379;51.034;7.006;2024-03-02T16:12:34;0.30;;;0.30;;
10661;SDS011;5379;51.034;7.006;2024-03-02T16:15:01;0.40;;;0.40;;
10661;SDS011;5379;51.034;7.006;2024-03-02T16:17:29;0.20;;;0.20;;
10661;SDS011;5379;51.034;7.006;2024-03-02T16:19:57;0.50;;;0.50;;
10661;SDS011;5379;51.034;7.006;2024-03-02T16:22:23;0.30;;;0.30;;
10661;SDS011;5379;51.034;7.006;2024-03-02T16:24:52;0.50;;;0.50;;
10661;SDS011;5379;51.034;7.006;2024-03-02T16:27:19;0.53;;;0.53;;
10661;SDS011;5379;51.034;7.006;2024-03-02T16:29:46;2.17;;;0.60;;
10661;SDS011;5379;51.034;7.006;2024-03-02T16:32:12;6.30;;;0.67;;
10661;SDS011;5379;51.034;7.006;2024-03-02T16:34:39;0.70;;;0.43;;
10661;SDS011;5379;51.034;7.006;2024-03-02T16:37:08;0.30;;;0.30;;
10661;SDS011;5379;51.034;7.006;2024-03-02T16:39:34;0.40;;;0.40;;
10661;SDS011;5379;51.034;7.006;2024-03-02T16:42:01;0.50;;;0.50;;
10661;SDS011;5379;51.034;7.006;2024-03-02T16:44:28;1.30;;;0.60;;
10661;SDS011;5379;51.034;7.006;2024-03-02T16:46:55;0.57;;;0.57;;
10661;SDS011;5379;51.034;7.006;2024-03-02T16:49:22;0.20;;;0.20;;
10661;SDS011;5379;51.034;7.006;2024-03-02T16:51:49;0.50;;;0.50;;
10661;SDS011;5379;51.034;7.006;2024-03-02T16:54:17;0.57;;;0.57;;
10661;SDS011;5379;51.034;7.006;2024-03-02T16:56:43;0.40;;;0.40;;
10661;SDS011;5379;51.034;7.006;2024-03-02T16:59:10;1.77;;;0.73;;
10661;SDS011;5379;51.034;7.006;2024-03-02T17:01:37;0.40;;;0.40;;
10661;SDS011;5379;51.034;7.006;2024-03-02T17:04:04;0.50;;;0.40;;
10661;SDS011;5379;51.034;7.006;2024-03-02T17:06:31;1.63;;;0.90;;
10661;SDS011;5379;51.034;7.006;2024-03-02T17:08:58;0.57;;;0.57;;
10661;SDS011;5379;51.034;7.006;2024-03-02T17:11:26;2.63;;;1.40;;
10661;SDS011;5379;51.034;7.006;2024-03-02T17:13:53;0.50;;;0.50;;
10661;SDS011;5379;51.034;7.006;2024-03-02T17:16:22;0.40;;;0.40;;
10661;SDS011;5379;51.034;7.006;2024-03-02T17:18:49;0.47;;;0.47;;
10661;SDS011;5379;51.034;7.006;2024-03-02T17:21:16;0.60;;;0.60;;
10661;SDS011;5379;51.034;7.006;2024-03-02T17:23:43;0.50;;;0.50;;
10661;SDS011;5379;51.034;7.006;2024-03-02T17:26:09;0.20;;;0.20;;
10661;SDS011;5379;51.034;7.006;2024-03-02T17:28:38;0.50;;;0.50;;
10661;SDS011;5379;51.034;7.006;2024-03-02T17:31:06;2.20;;;1.33;;
10661;SDS011;5379;51.034;7.006;2024-03-02T17:33:33;3.93;;;0.80;;
10661;SDS011;5379;51.034;7.006;2024-03-02T17:36:00;0.80;;;0.80;;
10661;SDS011;5379;51.034;7.006;2024-03-02T17:38:27;0.27;;;0.27;;
10661;SDS011;5379;51.034;7.006;2024-03-02T17:40:54;0.47;;;0.37;;
10661;SDS011;5379;51.034;7.006;2024-03-02T17:43:21;1.03;;;0.70;;
10661;SDS011;5379;51.034;7.006;2024-03-02T17:45:49;0.50;;;0.50;;
10661;SDS011;5379;51.034;7.006;2024-03-02T17:48:17;0.50;;;0.50;;
10661;SDS011;5379;51.034;7.006;2024-03-02T17:50:46;0.50;;;0.50;;
10661;SDS011;5379;51.034;7.006;2024-03-02T17:53:13;0.20;;;0.20;;
10661;SDS011;5379;51.034;7.006;2024-03-02T17:55:40;0.23;;;0.23;;
10661;SDS011;5379;51.034;7.006;2024-03-02T17:58:07;0.83;;;0.83;;
10661;SDS011;5379;51.034;7.006;2024-03-02T18:00:35;0.93;;;0.93;;
10661;SDS011;5379;51.034;7.006;2024-03-02T18:03:09;0.50;;;0.50;;
10661;SDS011;5379;51.034;7.006;2024-03-02T18:05:37;0.60;;;0.60;;
10661;SDS011;5379;51.034;7.006;2024-03-02T18:08:06;0.60;;;0.60;;
10661;SDS011;5379;51.034;7.006;2024-03-02T18:10:33;3.30;;;0.30;;
10661;SDS011;5379;51.034;7.006;2024-03-02T18:13:00;0.47;;;0.47;;
10661;SDS011;5379;51.034;7.006;2024-03-02T18:15:26;0.40;;;0.40;;
10661;SDS011;5379;51.034;7.006;2024-03-02T18:17:53;0.70;;;0.70;;
10661;SDS011;5379;51.034;7.006;2024-03-02T18:20:21;0.77;;;0.77;;
10661;SDS011;5379;51.034;7.006;2024-03-02T18:22:48;0.50;;;0.50;;
10661;SDS011;5379;51.034;7.006;2024-03-02T18:25:15;0.80;;;0.80;;
10661;SDS011;5379;51.034;7.006;2024-03-02T18:27:41;0.53;;;0.53;;
10661;SDS011;5379;51.034;7.006;2024-03-02T18:30:08;0.60;;;0.60;;
10661;SDS011;5379;51.034;7.006;2024-03-02T18:32:36;0.50;;;0.50;;
10661;SDS011;5379;51.034;7.006;2024-03-02T18:35:04;0.50;;;0.50;;
10661;SDS011;5379;51.034;7.006;2024-03-02T18:37:34;0.43;;;0.43;;
10661;SDS011;5379;51.034;7.006;2024-03-02T18:40:01;0.47;;;0.47;;
10661;SDS011;5379;51.034;7.006;2024-03-02T18:42:30;1.03;;;0.80;;
10661;SDS011;5379;51.034;7.006;2024-03-02T18:44:56;0.67;;;0.67;;
10661;SDS011;5379;51.034;7.006;2024-03-02T18:47:23;0.77;;;0.77;;
10661;SDS011;5379;51.034;7.006;2024-03-02T18:49:51;1.00;;;0.90;;
10661;SDS011;5379;51.034;7.006;2024-03-02T18:52:20;2.07;;;0.80;;
10661;SDS011;5379;51.034;7.006;2024-03-02T18:54:48;0.77;;;0.77;;
10661;SDS011;5379;51.034;7.006;2024-03-02T18:57:15;0.70;;;0.70;;
10661;SDS011;5379;51.034;7.006;2024-03-02T18:59:42;0.57;;;0.57;;
10661;SDS011;5379;51.034;7.006;2024-03-02T19:02:10;0.77;;;0.77;;
10661;SDS011;5379;51.034;7.006;2024-03-02T19:04:37;0.77;;;0.77;;
10661;SDS011;5379;51.034;7.006;2024-03-02T19:07:03;0.80;;;0.80;;
10661;SDS011;5379;51.034;7.006;2024-03-02T19:09:30;1.10;;;1.10;;
10661;SDS011;5379;51.034;7.006;2024-03-02T19:11:58;0.77;;;0.70;;
10661;SDS011;5379;51.034;7.006;2024-03-02T19:14:25;2.77;;;1.20;;
10661;SDS011;5379;51.034;7.006;2024-03-02T19:16:52;0.80;;;0.80;;
10661;SDS011;5379;51.034;7.006;2024-03-02T19:19:18;1.10;;;0.93;;
10661;SDS011;5379;51.034;7.006;2024-03-02T19:21:45;0.93;;;0.93;;
10661;SDS011;5379;51.034;7.006;2024-03-02T19:24:12;0.60;;;0.60;;
10661;SDS011;5379;51.034;7.006;2024-03-02T19:26:38;0.73;;;0.73;;
10661;SDS011;5379;51.034;7.006;2024-03-02T19:29:07;1.47;;;1.00;;
10661;SDS011;5379;51.034;7.006;2024-03-02T19:31:34;0.67;;;0.67;;
10661;SDS011;5379;51.034;7.006;2024-03-02T19:34:01;2.40;;;0.77;;
10661;SDS011;5379;51.034;7.006;2024-03-02T19:36:28;0.80;;;0.80;;
10661;SDS011;5379;51.034;7.006;2024-03-02T19:38:54;1.23;;;0.80;;
10661;SDS011;5379;51.034;7.006;2024-03-02T19:41:21;0.80;;;0.70;;
10661;SDS011;5379;51.034;7.006;2024-03-02T19:43:48;0.80;;;0.80;;
10661;SDS011;5379;51.034;7.006;2024-03-02T19:46:16;0.60;;;0.60;;
10661;SDS011;5379;51.034;7.006;2024-03-02T19:48:45;1.83;;;1.40;;
10661;SDS011;5379;51.034;7.006;2024-03-02T19:51:12;0.70;;;0.70;;
10661;SDS011;5379;51.034;7.006;2024-03-02T19:53:38;0.70;;;0.70;;